Time;durP1;ratioP1;P1;durP2;ratioP2;P2;SDS_P1;SDS_P2;PMS_P1;PMS_P2;Temp;Humidity;BMP_temperature;BMP_pressure;BME280_temperature;BME280_humidity;BME280_pressure;Samples;Min_cycle;Max_cycle;Signal;HPM_P1;HPM_P2
2023/01/18 00:02:33;;;;;;;11.10;3.90;;;;;;;-2.35;100.00;98195.28;6095307;29;20115;-85
2023/01/18 00:05:39;;;;;;;6.50;4.40;;;;;;;-2.35;100.00;98190.22;6090594;29;20094;-85
2023/01/18 00:08:41;;;;;;;8.90;3.92;;;;;;;-2.38;100.00;98188.69;6088143;29;20569;-85
2023/01/18 00:11:43;;;;;;;7.82;3.65;;;;;;;-2.39;100.00;98185.31;6110178;29;20123;-85
2023/01/18 00:14:45;;;;;;;8.55;4.65;;;;;;;-2.38;100.00;98181.91;6110587;29;20430;-85
2023/01/18 00:17:50;;;;;;;8.02;4.38;;;;;;;-2.38;100.00;98181.91;6089469;29;20139;-85
2023/01/18 00:20:52;;;;;;;6.10;4.00;;;;;;;-2.38;100.00;98174.28;6129286;28;20310;-85
2023/01/18 00:23:54;;;;;;;9.18;4.38;;;;;;;-2.40;100.00;98168.50;6159868;28;20124;-85
2023/01/18 00:26:56;;;;;;;12.13;4.55;;;;;;;-2.40;100.00;98167.69;6160765;28;20043;-85
2023/01/18 00:30:00;;;;;;;6.72;4.15;;;;;;;-2.42;100.00;98170.31;6160278;28;20054;-85
2023/01/18 00:33:02;;;;;;;7.18;4.47;;;;;;;-2.45;100.00;98177.31;6156106;28;20050;-85
2023/01/18 00:36:05;;;;;;;12.48;5.13;;;;;;;-2.44;100.00;98171.34;6153973;28;20050;-85
2023/01/18 00:39:07;;;;;;;7.50;4.65;;;;;;;-2.44;100.00;98177.19;6158400;28;20066;-85
2023/01/18 00:45:29;;;;;;;12.48;5.18;;;;;;;-2.49;100.00;98173.34;6160630;28;20182;-85
2023/01/18 00:48:32;;;;;;;10.00;4.82;;;;;;;-2.45;100.00;98170.53;6157052;28;20376;-85
2023/01/18 00:51:33;;;;;;;8.85;4.13;;;;;;;-2.49;100.00;98164.03;6160079;28;20050;-85
2023/01/18 00:54:35;;;;;;;11.15;5.82;;;;;;;-2.52;100.00;98160.88;6160024;28;20053;-85
2023/01/18 00:57:38;;;;;;;8.35;4.22;;;;;;;-2.51;100.00;98165.03;6159803;28;20231;-85
2023/01/18 01:00:40;;;;;;;7.28;4.15;;;;;;;-2.50;100.00;98159.06;6161081;28;20425;-85
2023/01/18 01:07:03;;;;;;;8.80;4.90;;;;;;;-2.53;100.00;98155.00;6165642;28;20038;-86
2023/01/18 01:10:08;;;;;;;10.57;4.60;;;;;;;-2.52;100.00;98166.75;6162800;28;20046;-85
2023/01/18 01:26:37;;;;;;;12.00;5.18;;;;;;;-2.60;100.00;98171.50;6164669;28;20050;-85
2023/01/18 01:29:39;;;;;;;9.50;4.82;;;;;;;-2.58;100.00;98182.34;6162587;28;20582;-85
2023/01/18 01:32:41;;;;;;;10.82;4.50;;;;;;;-2.52;100.00;98183.69;6160176;28;20043;-85
2023/01/18 01:35:43;;;;;;;10.65;5.40;;;;;;;-2.55;100.00;98184.69;6163019;28;20057;-85
2023/01/18 01:38:45;;;;;;;9.45;4.63;;;;;;;-2.61;100.00;98185.06;6165135;28;20039;-85
2023/01/18 01:41:47;;;;;;;9.70;5.38;;;;;;;-2.62;100.00;98189.31;6162117;28;20476;-85
2023/01/18 01:44:55;;;;;;;11.88;5.88;;;;;;;-2.60;100.00;98191.75;6161631;28;20043;-85
2023/01/18 01:47:58;;;;;;;10.45;4.97;;;;;;;-2.63;100.00;98184.34;6157638;28;20121;-86
2023/01/18 01:51:01;;;;;;;7.32;4.57;;;;;;;-2.62;100.00;98183.44;6162427;28;20039;-85
2023/01/18 01:54:07;;;;;;;7.65;4.72;;;;;;;-2.60;100.00;98186.69;6163098;28;20038;-86
2023/01/18 01:57:20;;;;;;;12.20;5.35;;;;;;;-2.63;100.00;98187.69;6162435;28;20043;-85
2023/01/18 02:00:25;;;;;;;10.50;4.75;;;;;;;-2.67;100.00;98186.25;6164140;28;20039;-86
2023/01/18 02:03:30;;;;;;;8.95;4.50;;;;;;;-2.63;100.00;98191.97;6142594;28;20043;-85
2023/01/18 02:06:35;;;;;;;10.63;5.72;;;;;;;-2.60;100.00;98192.56;6151672;28;20505;-85
2023/01/18 02:09:38;;;;;;;10.77;5.22;;;;;;;-2.55;100.00;98199.06;6143725;28;20138;-86
2023/01/18 02:12:43;;;;;;;13.25;5.95;;;;;;;-2.56;100.00;98193.16;6158295;28;20050;-85
2023/01/18 02:16:17;;;;;;;8.85;4.95;;;;;;;-2.55;100.00;98197.34;6152500;28;20074;-86
2023/01/18 02:19:56;;;;;;;10.52;4.90;;;;;;;-2.57;100.00;98194.09;6161667;28;20476;-86
2023/01/18 02:23:20;;;;;;;12.52;5.43;;;;;;;-2.63;100.00;98197.03;6153568;28;20140;-85
2023/01/18 02:27:00;;;;;;;12.75;6.10;;;;;;;-2.63;100.00;98200.38;6153233;28;20173;-85
2023/01/18 02:30:29;;;;;;;14.15;5.35;;;;;;;-2.66;100.00;98200.56;6157402;28;20039;-86
2023/01/18 02:33:54;;;;;;;13.45;5.60;;;;;;;-2.69;100.00;98204.97;6159024;28;20050;-86
2023/01/18 02:37:09;;;;;;;7.28;4.35;;;;;;;-2.66;100.00;98200.56;6169511;28;20366;-86
2023/01/18 02:40:38;;;;;;;9.35;4.70;;;;;;;-2.71;100.00;98200.00;6152937;28;20058;-86
2023/01/18 02:47:06;;;;;;;8.95;4.63;;;;;;;-2.72;100.00;98202.66;6164377;28;20042;-85
2023/01/18 02:50:08;;;;;;;9.45;4.95;;;;;;;-2.71;100.00;98204.25;6160725;28;20054;-86
2023/01/18 02:53:12;;;;;;;10.93;5.30;;;;;;;-2.67;100.00;98210.78;6155954;28;20097;-86
2023/01/18 02:56:36;;;;;;;8.57;5.30;;;;;;;-2.69;100.00;98217.66;6143333;28;20560;-86
2023/01/18 02:59:44;;;;;;;9.07;4.60;;;;;;;-2.68;100.00;98226.88;6153535;28;20050;-86
2023/01/18 03:02:48;;;;;;;9.77;5.45;;;;;;;-2.67;100.00;98229.31;6162896;28;20129;-85
2023/01/18 03:05:54;;;;;;;9.98;4.57;;;;;;;-2.70;100.00;98232.03;6161174;28;20046;-86
2023/01/18 03:08:57;;;;;;;12.18;6.32;;;;;;;-2.64;100.00;98230.81;6155472;28;20490;-86
2023/01/18 03:12:25;;;;;;;10.43;5.75;;;;;;;-2.66;100.00;98230.09;6157855;28;20031;-86
2023/01/18 03:15:45;;;;;;;11.10;5.18;;;;;;;-2.68;100.00;98235.28;6159533;28;20090;-85
2023/01/18 03:19:03;;;;;;;11.30;5.63;;;;;;;-2.69;100.00;98235.38;6160193;28;20412;-85
2023/01/18 03:22:05;;;;;;;13.18;4.82;;;;;;;-2.67;100.00;98231.84;6163345;28;20039;-86
2023/01/18 03:25:10;;;;;;;11.55;6.07;;;;;;;-2.66;100.00;98232.63;6159292;28;20050;-86
2023/01/18 03:35:10;;;;;;;6.85;4.78;;;;;;;-2.80;100.00;98232.69;6153626;28;20051;-86
2023/01/18 03:38:13;;;;;;;9.18;4.70;;;;;;;-2.79;100.00;98221.66;6159706;28;20517;-85
2023/01/18 03:41:18;;;;;;;10.80;5.10;;;;;;;-2.80;100.00;98230.16;6160099;28;20047;-86
2023/01/18 03:44:42;;;;;;;10.25;4.65;;;;;;;-2.91;100.00;98229.06;6160486;28;20047;-85
2023/01/18 03:48:09;;;;;;;9.02;4.66;;;;;;;-2.83;100.00;98226.91;6343027;27;1193874;-88
2023/01/18 03:51:46;;;;;;;11.20;5.20;;;;;;;-2.87;100.00;98228.00;6342739;27;20694;-88
2023/01/18 03:55:07;;;;;;;10.90;5.13;;;;;;;-2.86;100.00;98232.16;6325297;28;20104;-88
2023/01/18 03:58:25;;;;;;;9.88;4.65;;;;;;;-2.90;100.00;98228.19;6328576;28;20040;-88
2023/01/18 04:01:27;;;;;;;11.18;5.53;;;;;;;-2.85;100.00;98227.91;6327580;28;20135;-88
2023/01/18 04:04:29;;;;;;;8.93;5.45;;;;;;;-2.82;100.00;98232.78;6329664;28;20044;-88
2023/01/18 04:07:32;;;;;;;15.00;5.57;;;;;;;-2.79;100.00;98236.84;6330567;28;20039;-88
2023/01/18 04:10:33;;;;;;;13.13;5.63;;;;;;;-2.72;100.00;98233.84;6333071;28;20497;-88
2023/01/18 04:13:35;;;;;;;10.13;5.70;;;;;;;-2.66;100.00;98241.06;6327959;28;20399;-88
2023/01/18 04:16:37;;;;;;;13.85;5.75;;;;;;;-2.63;100.00;98247.66;6328167;28;20035;-88
2023/01/18 04:19:45;;;;;;;8.52;4.65;;;;;;;-2.62;100.00;98247.56;6332751;28;20043;-88
2023/01/18 04:22:54;;;;;;;10.65;5.03;;;;;;;-2.58;100.00;98250.72;6327538;28;20035;-88
2023/01/18 04:25:55;;;;;;;10.13;5.38;;;;;;;-2.61;100.00;98251.72;6331351;28;20382;-88
2023/01/18 04:28:57;;;;;;;10.15;5.03;;;;;;;-2.63;100.00;98252.72;6331916;28;20135;-88
2023/01/18 04:31:59;;;;;;;8.80;5.00;;;;;;;-2.73;100.00;98257.53;6330772;28;20435;-88
2023/01/18 04:35:01;;;;;;;10.75;5.57;;;;;;;-2.71;100.00;98258.22;6322627;28;20078;-88
2023/01/18 04:38:03;;;;;;;12.68;6.13;;;;;;;-2.73;100.00;98275.25;6329623;28;20097;-88
2023/01/18 04:41:04;;;;;;;11.13;4.97;;;;;;;-2.72;100.00;98268.47;6330447;28;20043;-88
2023/01/18 04:44:06;;;;;;;10.55;4.82;;;;;;;-2.80;100.00;98273.19;6325589;28;20043;-88
2023/01/18 04:47:08;;;;;;;8.32;4.93;;;;;;;-2.77;100.00;98273.00;6329287;28;20039;-88
2023/01/18 04:50:11;;;;;;;9.52;5.25;;;;;;;-2.77;100.00;98273.81;6328703;28;20111;-86
2023/01/18 04:53:13;;;;;;;10.75;4.80;;;;;;;-2.79;100.00;98285.75;6329939;28;20176;-86
2023/01/18 04:56:16;;;;;;;12.75;5.47;;;;;;;-2.87;100.00;98282.88;6327552;28;20500;-86
2023/01/18 04:59:18;;;;;;;7.18;4.57;;;;;;;-2.87;100.00;98283.69;6315452;28;20062;-86
2023/01/18 05:02:20;;;;;;;9.40;5.15;;;;;;;-2.87;100.00;98283.69;6314510;28;20485;-86
2023/01/18 05:05:22;;;;;;;9.55;5.07;;;;;;;-2.92;100.00;98285.69;6312394;28;20343;-86
2023/01/18 05:08:24;;;;;;;11.40;5.75;;;;;;;-2.92;100.00;98288.22;6315045;28;20040;-86
2023/01/18 05:11:26;;;;;;;9.02;5.22;;;;;;;-2.89;100.00;98293.09;6308318;28;20047;-86
2023/01/18 05:14:28;;;;;;;12.02;5.53;;;;;;;-2.89;100.00;98295.63;6312122;28;20051;-86
2023/01/18 05:17:34;;;;;;;10.93;5.50;;;;;;;-2.92;100.00;98298.34;6313770;28;20028;-86
2023/01/18 05:20:36;;;;;;;11.13;5.13;;;;;;;-2.91;100.00;98304.19;6303696;28;20044;-86
2023/01/18 05:23:39;;;;;;;9.05;5.32;;;;;;;-2.84;100.00;98305.47;6291677;28;20436;-85
2023/01/18 05:26:40;;;;;;;9.75;6.18;;;;;;;-2.84;100.00;98311.34;6310864;28;20108;-86
2023/01/18 05:29:42;;;;;;;12.38;5.70;;;;;;;-2.84;100.00;98308.00;6313219;28;20526;-86
2023/01/18 05:32:44;;;;;;;10.80;5.57;;;;;;;-2.90;100.00;98306.66;6312652;28;20048;-86
2023/01/18 05:35:54;;;;;;;13.30;6.25;;;;;;;-2.90;100.00;98306.66;6313256;28;20040;-86
2023/01/18 05:38:56;;;;;;;11.05;5.68;;;;;;;-2.83;100.00;98312.97;6313275;28;20166;-86
2023/01/18 05:41:58;;;;;;;9.52;5.47;;;;;;;-2.81;100.00;98317.94;6307995;28;20071;-86
2023/01/18 05:45:00;;;;;;;11.35;5.68;;;;;;;-2.76;100.00;98322.72;6300237;28;20044;-86
2023/01/18 05:48:03;;;;;;;8.20;5.13;;;;;;;-2.77;100.00;98331.22;6309493;28;20413;-86
2023/01/18 05:51:10;;;;;;;9.55;5.18;;;;;;;-2.79;100.00;98327.97;6312588;28;20032;-86
2023/01/18 05:54:12;;;;;;;10.27;4.75;;;;;;;-2.85;100.00;98326.63;6313459;28;20566;-86
2023/01/18 05:57:14;;;;;;;10.40;5.82;;;;;;;-2.82;100.00;98342.44;6307159;28;20395;-86
2023/01/18 06:00:16;;;;;;;9.50;5.38;;;;;;;-2.79;100.00;98336.38;6312454;28;20115;-86
2023/01/18 06:03:19;;;;;;;11.55;4.75;;;;;;;-2.76;100.00;98341.25;6301311;28;20036;-86
2023/01/18 06:06:21;;;;;;;9.38;5.22;;;;;;;-2.76;100.00;98342.97;6312677;28;20040;-85
2023/01/18 06:09:22;;;;;;;10.85;5.40;;;;;;;-2.80;100.00;98341.56;6300925;28;20040;-86
2023/01/18 06:12:24;;;;;;;9.20;5.28;;;;;;;-2.86;100.00;98350.31;6302520;28;20043;-86
2023/01/18 06:15:26;;;;;;;9.85;5.05;;;;;;;-2.87;100.00;98356.28;6289492;28;20518;-86
2023/01/18 06:18:31;;;;;;;10.90;4.80;;;;;;;-2.92;100.00;98354.00;6302436;28;20063;-86
2023/01/18 06:21:33;;;;;;;9.88;5.15;;;;;;;-2.92;100.00;98364.13;6309184;28;20201;-85
2023/01/18 06:24:35;;;;;;;11.70;4.85;;;;;;;-2.93;100.00;98366.75;6303726;28;20047;-85
2023/01/18 06:27:38;;;;;;;13.73;5.20;;;;;;;-2.92;100.00;98369.19;6311347;28;20557;-86
2023/01/18 06:30:41;;;;;;;10.07;5.13;;;;;;;-2.92;100.00;98363.34;6302542;28;20044;-86
2023/01/18 06:33:43;;;;;;;12.07;5.47;;;;;;;-2.94;100.00;98371.00;6311822;28;20040;-86
2023/01/18 06:36:45;;;;;;;10.68;4.95;;;;;;;-2.94;100.00;98372.72;6305470;28;20405;-86
2023/01/18 06:39:46;;;;;;;10.35;4.95;;;;;;;-2.95;100.00;98381.22;6299644;28;20120;-85
2023/01/18 06:42:48;;;;;;;10.73;5.13;;;;;;;-2.95;100.00;98379.50;6310981;28;20036;-85
2023/01/18 06:45:52;;;;;;;11.48;5.75;;;;;;;-2.90;100.00;98385.13;6310044;28;20024;-86
2023/01/18 06:48:54;;;;;;;10.82;5.57;;;;;;;-2.90;100.00;98391.91;6300898;28;20169;-86
2023/01/18 06:51:55;;;;;;;12.57;6.85;;;;;;;-2.91;100.00;98396.13;6303981;28;20052;-86
2023/01/18 06:54:57;;;;;;;9.55;5.32;;;;;;;-2.91;100.00;98403.72;6300101;28;20074;-86
2023/01/18 06:58:01;;;;;;;10.30;6.05;;;;;;;-2.88;100.00;98411.16;6309410;28;20115;-85
2023/01/18 07:01:03;;;;;;;13.00;6.15;;;;;;;-2.87;100.00;98411.97;6301827;28;20417;-86
2023/01/18 07:04:06;;;;;;;14.13;5.43;;;;;;;-2.88;100.00;98421.28;6312077;28;20036;-86
2023/01/18 07:07:08;;;;;;;14.45;6.10;;;;;;;-2.87;100.00;98427.16;6297151;28;20051;-86
2023/01/18 07:10:10;;;;;;;12.80;6.00;;;;;;;-2.86;100.00;98432.16;6305586;28;20114;-86
2023/01/18 07:13:14;;;;;;;11.70;5.53;;;;;;;-2.86;100.00;98433.84;6306942;28;20565;-86
2023/01/18 07:16:19;;;;;;;9.43;4.85;;;;;;;-2.87;100.00;98443.16;6310302;28;20087;-86
2023/01/18 07:19:21;;;;;;;10.63;5.78;;;;;;;-2.88;100.00;98438.16;6311975;28;20108;-86
2023/01/18 07:22:23;;;;;;;10.75;5.25;;;;;;;-2.84;100.00;98453.09;6304392;28;20699;-86
2023/01/18 07:25:26;;;;;;;11.88;6.05;;;;;;;-2.81;100.00;98457.16;6308336;28;20032;-86
2023/01/18 07:28:28;;;;;;;12.45;5.97;;;;;;;-2.80;100.00;98461.34;6304528;28;20417;-86
2023/01/18 07:31:30;;;;;;;14.60;5.78;;;;;;;-2.78;100.00;98466.28;6311798;28;20467;-86
2023/01/18 07:34:32;;;;;;;12.63;5.78;;;;;;;-2.81;100.00;98469.81;6309636;28;20048;-86
2023/01/18 07:37:34;;;;;;;11.13;6.30;;;;;;;-2.82;100.00;98471.53;6300151;28;20070;-85
2023/01/18 07:40:36;;;;;;;12.77;7.30;;;;;;;-2.76;100.00;98475.44;6307958;28;20496;-86
2023/01/18 07:43:39;;;;;;;17.00;6.85;;;;;;;-2.72;100.00;98481.97;6310884;28;20051;-86
2023/01/18 07:46:42;;;;;;;12.98;6.78;;;;;;;-2.68;100.00;98480.09;6306125;28;20129;-86
2023/01/18 07:49:43;;;;;;;10.63;5.82;;;;;;;-2.65;100.00;98483.25;6284973;28;20048;-86
2023/01/18 07:52:46;;;;;;;11.52;5.97;;;;;;;-2.63;100.00;98493.28;6298251;28;20044;-86
2023/01/18 07:55:48;;;;;;;9.13;5.70;;;;;;;-2.62;100.00;98492.38;6309987;28;20075;-86
2023/01/18 07:58:51;;;;;;;11.52;6.00;;;;;;;-2.58;100.00;98493.00;6297261;28;20044;-86
2023/01/18 08:01:53;;;;;;;11.82;5.90;;;;;;;-2.55;100.00;98502.97;6310202;28;20363;-86
2023/01/18 08:04:55;;;;;;;8.93;5.63;;;;;;;-2.51;100.00;98507.78;6297537;28;20040;-86
2023/01/18 08:07:57;;;;;;;10.85;6.55;;;;;;;-2.49;100.00;98505.94;6309467;28;20482;-86
2023/01/18 08:11:00;;;;;;;9.40;5.93;;;;;;;-2.44;100.00;98515.81;6300310;28;20052;-86
2023/01/18 08:14:02;;;;;;;11.20;5.60;;;;;;;-2.36;100.00;98513.69;6309220;28;20113;-86
2023/01/18 08:17:05;;;;;;;14.25;6.60;;;;;;;-2.31;100.00;98514.22;6311109;28;20036;-86
2023/01/18 08:20:08;;;;;;;12.93;6.68;;;;;;;-2.25;100.00;98510.50;6308671;28;20040;-86
2023/01/18 08:23:10;;;;;;;13.20;7.45;;;;;;;-2.22;100.00;98516.19;6303323;28;20044;-86
2023/01/18 08:26:14;;;;;;;13.75;7.05;;;;;;;-2.13;100.00;98519.91;6303547;28;20040;-86
2023/01/18 08:29:16;;;;;;;17.05;7.20;;;;;;;-2.09;100.00;98536.56;6299778;28;20067;-86
2023/01/18 08:32:18;;;;;;;11.77;6.60;;;;;;;-2.06;100.00;98527.94;6311202;28;20040;-86
2023/01/18 08:35:21;;;;;;;10.20;5.80;;;;;;;-2.05;100.00;98538.00;6320809;28;20155;-87
2023/01/18 08:38:24;;;;;;;12.50;6.47;;;;;;;-2.01;100.00;98538.66;6287114;28;20036;-87
2023/01/18 08:41:28;;;;;;;13.43;6.85;;;;;;;-1.97;100.00;98538.34;6300829;28;20051;-86
2023/01/18 08:44:29;;;;;;;12.57;6.57;;;;;;;-1.95;100.00;98549.22;6311936;28;20071;-87
2023/01/18 08:47:31;;;;;;;12.93;6.68;;;;;;;-1.89;100.00;98542.97;6294864;28;20096;-87
2023/01/18 08:50:34;;;;;;;11.85;6.05;;;;;;;-1.84;100.00;98551.13;6309397;28;20111;-87
2023/01/18 08:53:37;;;;;;;10.68;6.75;;;;;;;-1.82;100.00;98544.22;6313433;28;20036;-87
2023/01/18 08:56:38;;;;;;;13.35;7.20;;;;;;;-1.75;100.00;98554.84;6297562;28;20086;-87
2023/01/18 08:59:43;;;;;;;12.35;6.32;;;;;;;-1.72;100.00;98559.72;6297019;28;20040;-87
2023/01/18 09:02:47;;;;;;;13.90;6.70;;;;;;;-1.66;100.00;98566.97;6313693;28;20067;-87
2023/01/18 09:05:49;;;;;;;10.68;7.00;;;;;;;-1.57;100.00;98570.66;6304214;28;20033;-87
2023/01/18 09:08:51;;;;;;;12.57;6.40;;;;;;;-1.47;100.00;98578.53;6302222;28;20048;-87
2023/01/18 09:11:55;;;;;;;12.90;6.15;;;;;;;-1.38;100.00;98578.78;6304041;28;20032;-87
2023/01/18 09:14:57;;;;;;;10.15;5.38;;;;;;;-1.25;100.00;98586.44;6300063;28;20490;-87
2023/01/18 09:18:04;;;;;;;12.40;6.50;;;;;;;-1.16;100.00;98588.44;6300329;28;20430;-87
2023/01/18 09:21:08;;;;;;;11.63;6.60;;;;;;;-1.03;100.00;98596.09;6305797;28;20036;-87
2023/01/18 09:24:10;;;;;;;13.15;6.13;;;;;;;-0.93;100.00;98598.88;6297029;28;20074;-87
2023/01/18 09:27:12;;;;;;;12.43;6.72;;;;;;;-0.83;100.00;98607.53;6300312;28;20505;-87
2023/01/18 09:30:14;;;;;;;11.20;6.38;;;;;;;-0.75;100.00;98612.13;6298470;28;20394;-87
2023/01/18 09:33:17;;;;;;;13.30;7.57;;;;;;;-0.68;100.00;98609.09;6300554;28;20036;-88
2023/01/18 09:36:20;;;;;;;14.82;7.50;;;;;;;-0.57;100.00;98612.66;6298332;28;20514;-88
2023/01/18 09:39:22;;;;;;;11.85;5.75;;;;;;;-0.50;100.00;98616.44;6299513;28;20088;-88
2023/01/18 09:42:34;;;;;;;11.48;6.28;;;;;;;-0.40;100.00;98616.69;6308299;28;20043;-88
2023/01/18 09:45:38;;;;;;;11.55;6.55;;;;;;;-0.39;100.00;98619.13;6309199;28;20074;-88
2023/01/18 09:48:42;;;;;;;11.07;6.43;;;;;;;-0.32;100.00;98622.91;6299324;28;20181;-88
2023/01/18 09:51:59;;;;;;;16.05;6.32;;;;;;;-0.23;100.00;98621.47;6307792;28;20075;-88
2023/01/18 09:55:27;;;;;;;13.10;7.03;;;;;;;-0.16;100.00;98627.78;6311253;28;20048;-88
2023/01/18 09:58:54;;;;;;;13.27;7.10;;;;;;;-0.10;100.00;98624.88;6305281;28;20513;-88
2023/01/18 10:01:56;;;;;;;13.35;7.40;;;;;;;-0.07;100.00;98626.41;6309973;28;20035;-87
2023/01/18 10:05:04;;;;;;;13.15;6.57;;;;;;;-0.07;100.00;98622.13;6309825;28;20040;-88
2023/01/18 10:08:24;;;;;;;12.65;7.10;;;;;;;-0.05;100.00;98629.63;6309123;28;20063;-89
2023/01/18 10:11:49;;;;;;;11.13;6.93;;;;;;;-0.07;100.00;98631.47;6313029;28;20415;-88
2023/01/18 10:15:10;;;;;;;10.00;6.45;;;;;;;-0.06;100.00;98628.00;6307647;28;20038;-89
2023/01/18 10:18:14;;;;;;;12.73;6.55;;;;;;;-0.06;100.00;98631.34;6300602;28;20041;-89
2023/01/18 10:21:28;;;;;;;11.15;7.20;;;;;;;-0.03;100.00;98635.44;6307930;28;20517;-89
2023/01/18 10:25:13;;;;;;;13.13;7.07;;;;;;;-0.02;100.00;98640.44;6308293;28;20421;-89
2023/01/18 10:28:23;;;;;;;12.90;7.20;;;;;;;0.02;100.00;98640.22;6311555;28;20043;-90
2023/01/18 10:31:48;;;;;;;10.90;7.38;;;;;;;0.07;100.00;98641.53;6309310;28;20043;-89
2023/01/18 10:34:51;;;;;;;12.00;6.60;;;;;;;0.13;100.00;98643.69;6296168;28;20044;-90
2023/01/18 10:37:59;;;;;;;11.52;6.93;;;;;;;0.16;100.00;98646.03;6305375;28;20607;-90
2023/01/18 10:41:02;;;;;;;15.32;6.78;;;;;;;0.25;100.00;98643.78;6297356;28;20040;-91
2023/01/18 10:44:04;;;;;;;12.10;6.78;;;;;;;0.32;100.00;98650.06;6308569;28;20036;-91
2023/01/18 10:47:06;;;;;;;10.85;7.05;;;;;;;0.38;100.00;98653.03;6304952;28;20499;-91
2023/01/18 10:50:15;;;;;;;9.88;6.65;;;;;;;0.42;100.00;98658.72;6312561;28;20508;-91
2023/01/18 10:53:39;;;;;;;8.95;5.30;;;;;;;0.47;100.00;98649.03;6306615;28;20221;-91
2023/01/18 10:56:41;;;;;;;12.68;5.50;;;;;;;0.49;100.00;98651.50;6309982;28;20051;-91
2023/01/18 10:59:43;;;;;;;7.82;4.70;;;;;;;0.57;100.00;98650.06;6298004;28;20052;-91
2023/01/18 11:02:45;;;;;;;7.55;4.28;;;;;;;0.67;100.00;98652.78;6301608;28;20414;-91
2023/01/18 11:05:46;;;;;;;6.28;4.10;;;;;;;0.67;100.00;98644.34;6303656;28;20525;-90
2023/01/18 11:08:49;;;;;;;8.10;4.00;;;;;;;0.63;100.00;98639.47;6303931;28;20047;-90
2023/01/18 11:15:12;;;;;;;8.57;4.70;;;;;;;0.79;100.00;98644.28;6290171;28;20051;-90
2023/01/18 11:18:13;;;;;;;8.55;4.63;;;;;;;0.78;100.00;98632.50;6292411;28;20655;-91
2023/01/18 11:21:18;;;;;;;9.10;5.10;;;;;;;0.81;100.00;98628.94;6290590;28;20491;-90
2023/01/18 11:24:23;;;;;;;7.10;3.92;;;;;;;0.85;100.00;98622.72;6272055;28;20493;-90
2023/01/18 11:27:25;;;;;;;8.38;3.95;;;;;;;0.95;100.00;98628.78;6291116;28;20494;-91
2023/01/18 11:30:27;;;;;;;8.60;4.80;;;;;;;0.98;100.00;98630.31;6295835;28;20101;-90
2023/01/18 11:33:29;;;;;;;8.90;4.43;;;;;;;1.08;100.00;98639.72;6298443;28;20056;-91
2023/01/18 11:36:44;;;;;;;8.27;4.65;;;;;;;1.10;100.00;98632.00;6290015;28;20537;-90
2023/01/18 11:39:45;;;;;;;10.13;4.78;;;;;;;1.20;100.00;98644.91;6306274;28;20036;-91
2023/01/18 11:42:50;;;;;;;8.00;4.30;;;;;;;1.24;100.00;98638.63;6294578;28;20474;-91
2023/01/18 11:46:00;;;;;;;8.38;4.70;;;;;;;1.28;100.00;98642.59;6292186;28;20055;-92
2023/01/18 11:49:19;;;;;;;7.90;4.72;;;;;;;1.30;100.00;98645.88;6293073;28;20083;-92
2023/01/18 11:52:59;;;;;;;9.13;4.43;;;;;;;1.35;100.00;98641.25;6295587;28;20043;-91
2023/01/18 11:56:38;;;;;;;13.87;4.93;;;;;;;1.36;100.00;98642.88;6302990;28;20481;-91
2023/01/18 11:59:47;;;;;;;8.55;3.88;;;;;;;1.33;100.00;98638.00;6304534;28;20682;-92
2023/01/18 12:03:13;;;;;;;6.68;3.00;;;;;;;1.30;100.00;98617.84;6309783;28;20125;-91
2023/01/18 12:06:32;;;;;;;7.05;3.42;;;;;;;1.39;100.00;98617.19;6297577;28;20051;-92
2023/01/18 12:09:54;;;;;;;11.38;4.78;;;;;;;1.49;100.00;98630.06;6303320;28;20048;-92
2023/01/18 12:13:14;;;;;;;10.00;4.20;;;;;;;1.58;100.00;98638.78;6295961;28;20174;-91
2023/01/18 12:16:22;;;;;;;8.47;4.80;;;;;;;1.54;100.00;98639.91;6304716;28;20047;-91
2023/01/18 12:19:46;;;;;;;8.45;4.15;;;;;;;1.60;100.00;98642.84;6313706;28;20052;-91
2023/01/18 12:23:10;;;;;;;9.20;4.65;;;;;;;1.53;100.00;98640.84;6297009;28;20085;-91
2023/01/18 12:26:48;;;;;;;8.38;4.63;;;;;;;1.46;100.00;98633.63;6301136;28;20071;-91
2023/01/18 12:29:59;;;;;;;9.50;4.50;;;;;;;1.56;100.00;98644.00;6280116;28;20133;-90
2023/01/18 12:33:29;;;;;;;8.35;4.70;;;;;;;1.46;100.00;98645.56;6294321;28;20137;-91
2023/01/18 12:36:54;;;;;;;7.70;4.70;;;;;;;1.54;100.00;98660.31;6296611;28;20044;-90
2023/01/18 12:40:05;;;;;;;9.00;4.82;;;;;;;1.53;100.00;98651.06;6301109;28;20069;-90
2023/01/18 12:43:14;;;;;;;8.57;4.50;;;;;;;1.51;100.00;98646.88;6295888;28;20533;-90
2023/01/18 12:46:26;;;;;;;8.70;4.70;;;;;;;1.54;100.00;98647.56;6305065;28;20036;-90
2023/01/18 12:49:34;;;;;;;11.05;4.45;;;;;;;1.59;100.00;98648.06;6304811;28;20044;-90
2023/01/18 12:52:45;;;;;;;11.43;4.68;;;;;;;1.54;100.00;98650.13;6298758;28;20037;-90
2023/01/18 12:55:50;;;;;;;9.10;4.65;;;;;;;1.48;100.00;98648.84;6303056;28;20079;-90
2023/01/18 12:58:56;;;;;;;11.07;5.68;;;;;;;1.48;100.00;98656.47;6295916;28;20127;-90
2023/01/18 13:02:23;;;;;;;8.55;4.70;;;;;;;1.41;100.00;98670.59;6291256;28;20041;-90
2023/01/18 13:05:35;;;;;;;8.90;4.82;;;;;;;1.40;100.00;98674.06;6301989;28;20036;-90
2023/01/18 13:09:10;;;;;;;9.52;4.97;;;;;;;1.39;100.00;98675.81;6294334;28;20052;-90
2023/01/18 13:12:15;;;;;;;10.55;5.85;;;;;;;1.32;100.00;98676.31;6297285;28;20040;-89
2023/01/18 13:15:44;;;;;;;10.40;5.60;;;;;;;1.33;100.00;98680.53;6294905;28;20037;-90
2023/01/18 13:18:57;;;;;;;9.00;5.30;;;;;;;1.31;100.00;98693.34;6295368;28;20509;-89
2023/01/18 13:22:46;;;;;;;12.98;4.95;;;;;;;1.18;100.00;98690.88;6291804;28;20048;-90
2023/01/18 13:26:03;;;;;;;13.93;5.93;;;;;;;1.12;100.00;98693.84;6210300;28;20052;-89
2023/01/18 13:29:24;;;;;;;12.13;5.60;;;;;;;1.02;100.00;98703.06;6209222;28;20050;-90
2023/01/18 13:32:35;;;;;;;10.05;5.20;;;;;;;1.01;100.00;98714.97;6201836;28;20137;-89
2023/01/18 13:36:02;;;;;;;9.93;5.47;;;;;;;0.96;100.00;98706.00;6209209;28;20089;-89
2023/01/18 13:39:12;;;;;;;10.25;4.85;;;;;;;0.90;100.00;98722.53;6210332;28;20054;-90
2023/01/18 13:42:19;;;;;;;12.48;5.68;;;;;;;0.90;100.00;98725.06;6208816;28;20050;-90
2023/01/18 13:45:24;;;;;;;13.23;5.90;;;;;;;0.86;100.00;98718.56;6210364;28;20046;-90
2023/01/18 13:49:17;;;;;;;10.45;5.57;;;;;;;0.77;100.00;98724.25;6210535;28;20104;-90
2023/01/18 13:52:41;;;;;;;10.70;5.60;;;;;;;0.74;100.00;98727.03;6207406;28;20506;-90
2023/01/18 13:55:58;;;;;;;9.52;5.22;;;;;;;0.63;100.00;98736.19;6240313;28;20292;-90
2023/01/18 13:59:19;;;;;;;9.40;5.13;;;;;;;0.55;100.00;98727.47;6299397;28;20139;-90
2023/01/18 14:02:31;;;;;;;10.38;5.65;;;;;;;0.51;100.00;98742.09;6293982;28;20044;-91
2023/01/18 14:05:47;;;;;;;9.95;5.70;;;;;;;0.43;100.00;98739.25;6301256;28;20059;-91
2023/01/18 14:08:53;;;;;;;8.82;5.47;;;;;;;0.36;100.00;98748.22;6297975;28;20054;-92
2023/01/18 14:11:57;;;;;;;9.20;5.70;;;;;;;0.32;100.00;98744.22;6293564;28;20169;-91
2023/01/18 14:14:59;;;;;;;12.52;5.78;;;;;;;0.29;100.00;98745.25;6294736;28;20044;-92
2023/01/18 14:18:01;;;;;;;10.35;5.47;;;;;;;0.30;100.00;98756.22;6298275;28;20051;-92
2023/01/18 14:21:09;;;;;;;12.60;5.82;;;;;;;0.31;100.00;98761.22;6299291;28;20485;-92
2023/01/18 14:24:55;;;;;;;10.05;5.47;;;;;;;0.34;100.00;98755.94;6299503;28;20627;-92
2023/01/18 14:28:08;;;;;;;11.35;6.38;;;;;;;0.30;100.00;98759.63;6294674;28;20040;-92
2023/01/18 14:31:26;;;;;;;11.63;6.38;;;;;;;0.24;100.00;98766.81;6296403;28;20112;-92
2023/01/18 14:34:27;;;;;;;12.63;7.47;;;;;;;0.14;100.00;98769.94;6290924;28;20099;-92
2023/01/18 14:37:35;;;;;;;14.07;7.38;;;;;;;0.04;100.00;98768.09;6296371;28;20071;-91
2023/01/18 14:40:40;;;;;;;16.20;9.02;;;;;;;-0.06;100.00;98767.88;6293304;28;20043;-91
2023/01/18 14:43:45;;;;;;;19.38;9.07;;;;;;;-0.18;100.00;98772.00;6293486;28;20044;-92
2023/01/18 14:46:53;;;;;;;18.48;9.35;;;;;;;-0.28;100.00;98781.13;6296769;28;20489;-91
2023/01/18 14:49:55;;;;;;;19.25;9.82;;;;;;;-0.38;100.00;98777.53;6291522;28;20040;-92
2023/01/18 14:52:58;;;;;;;18.50;9.35;;;;;;;-0.46;100.00;98780.53;6286631;28;20037;-92
2023/01/18 14:56:09;;;;;;;20.98;9.77;;;;;;;-0.56;100.00;98779.47;6289474;28;20040;-91
2023/01/18 14:59:32;;;;;;;17.30;9.38;;;;;;;-0.71;100.00;98776.97;6268796;28;20044;-92
2023/01/18 15:02:37;;;;;;;17.45;9.10;;;;;;;-0.79;100.00;98784.25;6289072;28;20133;-92
2023/01/18 15:05:40;;;;;;;19.48;9.00;;;;;;;-0.87;100.00;98788.94;6292207;28;20395;-92